ADDS METAR Data INFO
IDs: Format: Raw Decoded Include TAF

Data at: 2304 UTC 16 Jan 2018

KFPR 162253Z 35005KT 10SM CLR 17/12 A3026 RMK AO2 SLP246 T01720117
KFPR 162153Z 35008KT 10SM CLR 19/11 A3026 RMK AO2 SLP247 T01940111
KFPR 162053Z 03006KT 10SM CLR 21/12 A3025 RMK AO2 SLP242 T02060122 56016
KFPR 161953Z 01008KT 10SM CLR 22/11 A3025 RMK AO2 SLP243 T02170106
KFPR 161853Z 01008KT 10SM CLR 22/11 A3027 RMK AO2 SLP251 T02170106
KFPR 161753Z 01008KT 10SM CLR 22/10 A3030 RMK AO2 SLP258 T02170100 10222 20089 58018
KFPR 161653Z 05009KT 10SM CLR 22/11 A3033 RMK AO2 SLP270 T02170106
KFPR 161553Z 06007KT 10SM CLR 22/11 A3035 RMK AO2 SLP276 T02170111
KFPR 161522Z 05007KT 10SM CLR 21/11 A3035 RMK AO2 T02110111
KFPR 161453Z 06008KT 10SM CLR 21/12 A3035 RMK AO2 SLP276 T02060117 52015
KFPR 161353Z 00000KT 10SM CLR 18/13 A3034 RMK AO2 SLP271 T01780128
KFPR 161253Z 00000KT 10SM CLR 10/10 A3032 RMK AO2 SLP267 T01000100
KFPR 161153Z 26003KT 10SM CLR 09/09 A3031 RMK AO2 SLP262 T00940094 10172 20094 53009
KFPR 161053Z AUTO 04004KT 10SM CLR 16/11 A3029 RMK AO2 SLP257 T01610111
KFPR 160953Z AUTO 05004KT 10SM BKN040 17/12 A3029 RMK AO2 SLP255 T01670117
KFPR 160853Z AUTO 05003KT 10SM CLR 17/12 A3028 RMK AO2 SLP252 T01670117 55005
KFPR 160753Z 06004KT 10SM SCT038 17/11 A3027 RMK AO2 SLP251 T01670111
KFPR 160653Z 06005KT 10SM CLR 17/11 A3028 RMK AO2 SLP254 T01720111
KFPR 160553Z 05008KT 10SM CLR 17/12 A3029 RMK AO2 SLP257 T01720117 10178 20144 58006
KFPR 160453Z 05004KT 10SM FEW042 FEW050 17/11 A3029 RMK AO2 SLP258 T01720111 402000089
KFPR 160353Z 36003KT 10SM BKN045 15/13 A3031 RMK AO2 SLP263 T01500128
KFPR 160253Z 35006KT 10SM CLR 14/12 A3031 RMK AO2 SLP263 T01440122 51009
KFPR 160153Z 34007KT 10SM BKN048 14/11 A3030 RMK AO2 SLP260 T01440111
KFPR 160053Z 34009G19KT 10SM SCT040 BKN048 OVC060 15/12 A3029 RMK AO2 SLP257 T01500117
KFPR 152353Z 34011G19KT 10SM SCT041 OVC055 16/12 A3028 RMK AO2 SLP253 60000 T01560117 10189 20156 53004
KFPR 152253Z 35011G18KT 10SM BKN036 OVC046 16/12 A3027 RMK AO2 SLP250 T01560122
KFPR 152153Z 35010KT 10SM FEW026 BKN031 OVC044 16/13 A3027 RMK AO2 RAB18E36 SLP249 P0000 T01610128
KFPR 152150Z 35009KT 10SM BKN029 BKN035 OVC044 16/13 A3027 RMK AO2 RAB18E36 P0000
KFPR 152053Z 36012G23KT 10SM SCT031 BKN039 BKN050 17/13 A3027 RMK AO2 RAB44E53 SLP249 P0000 60000 T01670128 55004
KFPR 151953Z 01013G23KT 10SM FEW029 BKN050 18/13 A3026 RMK AO2 SLP244 T01830133
KFPR 151853Z 01015G22KT 10SM BKN043 BKN055 18/13 A3025 RMK AO2 SLP244 T01780133
KFPR 151819Z 35012G22KT 10SM SCT027 OVC036 18/13 A3027 RMK AO2 T01830133
KFPR 151753Z 35011G20KT 10SM BKN028 OVC039 18/13 A3028 RMK AO2 SLP252 T01830133 10200 20100 58011
KFPR 151653Z 35013G24KT 10SM BKN038 19/14 A3030 RMK AO2 SLP260 T01940139
KFPR 151553Z 35012G20KT 320V020 10SM FEW042 FEW065 18/13 A3032 RMK AO2 SLP266 T01830133
KFPR 151453Z 35008G17KT 10SM CLR 17/13 A3031 RMK AO2 SLP264 T01670128 53013
KFPR 151353Z 33009KT 290V360 10SM CLR 14/12 A3030 RMK AO2 SLP258 T01390117
KFPR 151253Z 33005KT 10SM SCT029 11/10 A3028 RMK AO2 SLP253 T01060100
KFPR 151223Z 32007KT 10SM SCT029 10/09 A3027 RMK AO2 T01000094
KFPR 151216Z 32008KT 10SM OVC029 10/09 A3027 RMK AO2 T01000094
KFPR 151153Z 33006KT 10SM BKN035 10/09 A3027 RMK AO2 SLP250 T01000094 10100 20089 53008